createdAt,value
2023-03-05T00:01:02.840Z,2.20
2023-03-05T00:04:05.797Z,4.40
2023-03-05T00:07:08.924Z,2.08
2023-03-05T00:10:11.847Z,3.53
2023-03-05T00:13:15.158Z,2.60
2023-03-05T00:16:17.805Z,3.83
2023-03-05T00:19:20.064Z,3.38
2023-03-05T00:22:22.296Z,3.00
2023-03-05T00:25:25.147Z,2.50
2023-03-05T00:28:28.123Z,2.72
2023-03-05T00:31:31.066Z,3.05
2023-03-05T00:34:34.121Z,2.85
2023-03-05T00:37:37.165Z,2.67
2023-03-05T00:40:40.212Z,2.00
2023-03-05T00:43:42.748Z,2.90
2023-03-05T00:46:45.039Z,2.10
2023-03-05T00:49:47.738Z,3.25
2023-03-05T00:52:51.172Z,2.20
2023-03-05T00:55:53.700Z,2.42
2023-03-05T00:58:56.200Z,2.78
2023-03-05T01:01:58.535Z,2.22
2023-03-05T01:05:01.723Z,2.55
2023-03-05T01:08:05.137Z,2.50
2023-03-05T01:11:08.227Z,3.03
2023-03-05T01:14:10.852Z,2.63
2023-03-05T01:17:14.679Z,2.72
2023-03-05T01:20:18.486Z,2.20
2023-03-05T01:23:21.559Z,2.15
2023-03-05T01:26:24.528Z,2.65
2023-03-05T01:29:27.921Z,3.30
2023-03-05T01:32:30.659Z,2.40
2023-03-05T01:35:33.736Z,3.40
2023-03-05T01:38:36.890Z,2.90
2023-03-05T01:41:40.244Z,2.33
2023-03-05T01:44:42.757Z,2.75
2023-03-05T01:47:45.426Z,2.42
2023-03-05T01:50:48.863Z,3.47
2023-03-05T01:53:52.051Z,3.33
2023-03-05T01:56:55.029Z,2.40
2023-03-05T01:59:57.595Z,2.17
2023-03-05T02:03:00.312Z,2.83
2023-03-05T02:06:04.539Z,2.70
2023-03-05T02:09:08.078Z,2.80
2023-03-05T02:12:10.756Z,2.35
2023-03-05T02:15:13.911Z,1.92
2023-03-05T02:18:16.631Z,2.80
2023-03-05T02:21:20.186Z,3.08
2023-03-05T02:24:22.245Z,2.92
2023-03-05T02:27:25.404Z,2.53
2023-03-05T02:30:30.519Z,2.60
2023-03-05T02:33:34.044Z,1.95
2023-03-05T02:36:36.402Z,3.55
2023-03-05T02:39:38.849Z,2.53
2023-03-05T02:42:42.524Z,2.47
2023-03-05T02:45:46.828Z,1.80
2023-03-05T02:48:49.533Z,3.60
2023-03-05T02:51:52.634Z,2.15
2023-03-05T02:54:54.913Z,1.90
2023-03-05T02:57:59.265Z,3.80
2023-03-05T03:01:03.392Z,4.30
2023-03-05T03:04:06.144Z,2.38
2023-03-05T03:07:08.980Z,2.17
2023-03-05T03:10:11.610Z,2.40
2023-03-05T03:13:14.099Z,2.13
2023-03-05T03:16:17.042Z,2.42
2023-03-05T03:19:20.126Z,4.13
2023-03-05T03:22:23.306Z,2.50
2023-03-05T03:25:26.198Z,3.15
2023-03-05T03:28:29.555Z,2.40
2023-03-05T03:31:32.505Z,1.98
2023-03-05T03:34:36.299Z,3.25
2023-03-05T03:37:38.759Z,3.47
2023-03-05T03:40:41.079Z,3.72
2023-03-05T03:43:43.646Z,2.20
2023-03-05T03:46:47.035Z,3.25
2023-03-05T03:49:50.286Z,3.58
2023-03-05T03:52:53.585Z,2.08
2023-03-05T03:55:56.826Z,2.60
2023-03-05T03:58:59.757Z,2.03
2023-03-05T04:02:02.478Z,2.72
2023-03-05T04:05:04.869Z,3.42
2023-03-05T04:08:08.614Z,2.63
2023-03-05T04:11:11.494Z,2.95
2023-03-05T04:14:14.058Z,3.92
2023-03-05T04:17:16.725Z,2.67
2023-03-05T04:20:19.134Z,3.45
2023-03-05T04:23:22.345Z,3.75
2023-03-05T04:26:26.124Z,1.98
2023-03-05T04:29:28.555Z,2.70
2023-03-05T04:32:31.651Z,2.83
2023-03-05T04:35:34.040Z,3.70
2023-03-05T04:38:36.893Z,3.78
2023-03-05T04:41:40.137Z,2.70
2023-03-05T04:44:42.961Z,2.63
2023-03-05T04:47:46.107Z,2.85
2023-03-05T04:50:48.699Z,2.60
2023-03-05T04:53:51.438Z,2.25
2023-03-05T04:56:54.064Z,2.13
2023-03-05T04:59:57.391Z,2.13
2023-03-05T05:03:01.330Z,2.60
2023-03-05T05:06:04.480Z,2.53
2023-03-05T05:09:07.149Z,2.05
2023-03-05T05:12:10.463Z,3.15
2023-03-05T05:15:13.922Z,3.05
2023-03-05T05:18:16.637Z,1.73
2023-03-05T05:21:19.259Z,1.23
2023-03-05T05:24:21.759Z,2.13
2023-03-05T05:27:24.457Z,3.33
2023-03-05T05:30:27.140Z,1.75
2023-03-05T05:33:29.413Z,3.00
2023-03-05T05:36:32.514Z,3.22
2023-03-05T05:39:36.437Z,2.13
2023-03-05T05:42:39.122Z,3.38
2023-03-05T05:45:41.845Z,2.03
2023-03-05T05:48:45.006Z,3.22
2023-03-05T05:51:47.682Z,2.17
2023-03-05T05:54:50.764Z,2.95
2023-03-05T05:57:53.507Z,3.28
2023-03-05T06:00:56.922Z,2.70
2023-03-05T06:03:59.502Z,2.03
2023-03-05T06:07:02.531Z,3.03
2023-03-05T06:10:04.818Z,3.80
2023-03-05T06:13:08.067Z,1.85
2023-03-05T06:16:11.113Z,3.30
2023-03-05T06:19:14.236Z,1.80
2023-03-05T06:22:16.762Z,3.15
2023-03-05T06:25:19.821Z,3.08
2023-03-05T06:28:22.526Z,3.88
2023-03-05T06:31:25.589Z,3.40
2023-03-05T06:34:28.242Z,3.53
2023-03-05T06:37:30.878Z,2.70
2023-03-05T06:40:33.870Z,3.55
2023-03-05T06:43:36.503Z,2.17
2023-03-05T06:46:38.758Z,2.72
2023-03-05T06:49:41.175Z,1.83
2023-03-05T06:52:44.729Z,3.08
2023-03-05T06:55:47.661Z,2.55
2023-03-05T06:58:50.533Z,4.07
2023-03-05T07:01:53.840Z,2.22
2023-03-05T07:04:56.879Z,2.45
2023-03-05T07:07:59.088Z,2.30
2023-03-05T07:11:01.979Z,3.53
2023-03-05T07:14:04.991Z,3.15
2023-03-05T07:17:07.597Z,1.95
2023-03-05T07:20:11.012Z,2.72
2023-03-05T07:23:14.510Z,3.35
2023-03-05T07:26:17.536Z,2.75
2023-03-05T07:29:20.497Z,1.85
2023-03-05T07:32:23.589Z,2.05
2023-03-05T07:35:26.411Z,4.75
2023-03-05T07:38:28.710Z,3.08
2023-03-05T07:41:32.015Z,2.63
2023-03-05T07:44:34.562Z,1.77
2023-03-05T07:47:36.856Z,2.85
2023-03-05T07:50:39.853Z,3.10
2023-03-05T07:53:43.009Z,2.38
2023-03-05T07:56:46.092Z,2.45
2023-03-05T07:59:49.838Z,2.72
2023-03-05T08:02:52.863Z,2.25
2023-03-05T08:05:55.659Z,1.95
2023-03-05T08:08:58.195Z,3.13
2023-03-05T08:12:01.594Z,3.10
2023-03-05T08:15:04.579Z,1.92
2023-03-05T08:18:08.014Z,3.13
2023-03-05T08:21:10.953Z,2.85
2023-03-05T08:24:14.261Z,2.42
2023-03-05T08:27:17.489Z,3.10
2023-03-05T08:30:20.895Z,2.85
2023-03-05T08:33:24.794Z,2.70
2023-03-05T08:36:28.983Z,2.78
2023-03-05T08:39:32.167Z,2.35
2023-03-05T08:42:35.555Z,2.85
2023-03-05T08:45:37.806Z,2.13
2023-03-05T08:48:40.907Z,2.78
2023-03-05T08:51:43.937Z,1.58
2023-03-05T08:54:46.475Z,2.28
2023-03-05T08:57:49.340Z,2.75
2023-03-05T09:00:52.368Z,2.22
2023-03-05T09:03:55.288Z,1.55
2023-03-05T09:06:57.872Z,2.08
2023-03-05T09:10:00.826Z,2.03
2023-03-05T09:13:03.956Z,2.53
2023-03-05T09:16:07.471Z,3.15
2023-03-05T09:19:10.201Z,3.05
2023-03-05T09:22:13.735Z,2.20
2023-03-05T09:25:16.032Z,2.40
2023-03-05T09:28:19.233Z,1.88
2023-03-05T09:31:22.621Z,3.22
2023-03-05T09:34:25.128Z,2.25
2023-03-05T09:37:27.812Z,1.95
2023-03-05T09:40:30.796Z,1.77
2023-03-05T09:43:33.748Z,2.15
2023-03-05T09:46:35.956Z,2.10
2023-03-05T09:49:38.797Z,1.60
2023-03-05T09:52:42.242Z,1.95
2023-03-05T09:55:45.072Z,2.25
2023-03-05T09:58:48.907Z,1.35
2023-03-05T10:01:51.961Z,2.78
2023-03-05T10:04:54.904Z,1.75
2023-03-05T10:07:57.489Z,2.55
2023-03-05T10:11:00.505Z,2.08
2023-03-05T10:14:03.645Z,1.45
2023-03-05T10:17:06.443Z,2.17
2023-03-05T10:20:09.305Z,1.45
2023-03-05T10:23:12.447Z,2.25
2023-03-05T10:26:15.993Z,1.70
2023-03-05T10:29:19.918Z,1.65
2023-03-05T10:32:22.528Z,1.10
2023-03-05T10:35:25.491Z,1.00
2023-03-05T10:38:28.499Z,1.83
2023-03-05T10:41:31.547Z,2.50
2023-03-05T10:44:34.471Z,2.05
2023-03-05T10:47:37.271Z,1.52
2023-03-05T10:50:40.417Z,1.20
2023-03-05T10:53:43.966Z,3.05
2023-03-05T10:56:46.265Z,2.33
2023-03-05T10:59:49.000Z,2.15
2023-03-05T11:02:52.211Z,1.23
2023-03-05T11:05:55.738Z,1.45
2023-03-05T11:08:58.037Z,1.35
2023-03-05T11:12:00.731Z,2.15
2023-03-05T11:15:03.868Z,1.58
2023-03-05T11:18:06.914Z,1.75
2023-03-05T11:21:09.364Z,1.23
2023-03-05T11:24:12.771Z,1.65
2023-03-05T11:27:15.464Z,1.65
2023-03-05T11:30:18.153Z,2.17
2023-03-05T11:33:20.837Z,1.33
2023-03-05T11:36:23.878Z,1.75
2023-03-05T11:39:27.070Z,1.67
2023-03-05T11:42:31.029Z,2.17
2023-03-05T11:45:34.059Z,1.45
2023-03-05T11:48:36.833Z,1.25
2023-03-05T11:51:39.906Z,1.02
2023-03-05T11:54:42.513Z,2.03
2023-03-05T11:57:44.730Z,1.20
2023-03-05T12:00:47.761Z,0.95
2023-03-05T12:03:51.024Z,1.63
2023-03-05T12:06:54.113Z,1.20
2023-03-05T12:09:57.473Z,1.73
2023-03-05T12:13:00.616Z,1.63
2023-03-05T12:16:03.347Z,1.05
2023-03-05T12:19:06.218Z,1.98
2023-03-05T12:22:09.331Z,1.65
2023-03-05T12:25:12.311Z,1.67
2023-03-05T12:28:14.548Z,1.25
2023-03-05T12:31:17.017Z,1.88
2023-03-05T12:34:20.908Z,1.13
2023-03-05T12:37:24.124Z,0.52
2023-03-05T12:40:27.545Z,0.82
2023-03-05T12:43:30.956Z,0.88
2023-03-05T12:46:33.953Z,0.90
2023-03-05T12:49:36.966Z,1.60
2023-03-05T12:52:39.643Z,1.90
2023-03-05T12:55:42.386Z,1.20
2023-03-05T12:58:44.884Z,1.13
2023-03-05T13:01:48.156Z,1.67
2023-03-05T13:04:51.504Z,1.00
2023-03-05T13:07:54.465Z,0.80
2023-03-05T13:10:57.352Z,1.05
2023-03-05T13:14:00.878Z,1.08
2023-03-05T13:17:03.604Z,2.25
2023-03-05T13:20:06.705Z,0.90
2023-03-05T13:23:10.119Z,1.20
2023-03-05T13:26:12.833Z,1.75
2023-03-05T13:29:15.579Z,1.00
2023-03-05T13:32:18.742Z,1.08
2023-03-05T13:35:22.364Z,1.90
2023-03-05T13:38:25.208Z,0.73
2023-03-05T13:41:28.921Z,1.38
2023-03-05T13:44:32.023Z,2.42
2023-03-05T13:47:34.972Z,0.93
2023-03-05T13:50:37.534Z,1.95
2023-03-05T13:53:40.897Z,2.00
2023-03-05T13:56:44.342Z,1.25
2023-03-05T13:59:48.443Z,1.50
2023-03-05T14:02:51.440Z,1.00
2023-03-05T14:05:53.854Z,0.88
2023-03-05T14:08:58.470Z,1.10
2023-03-05T14:12:02.298Z,2.38
2023-03-05T14:15:05.803Z,1.10
2023-03-05T14:18:08.967Z,0.80
2023-03-05T14:21:12.367Z,0.80
2023-03-05T14:24:15.218Z,0.65
2023-03-05T14:27:18.480Z,0.75
2023-03-05T14:30:21.048Z,0.47
2023-03-05T14:33:23.535Z,1.17
2023-03-05T14:36:26.548Z,1.02
2023-03-05T14:39:30.053Z,1.23
2023-03-05T14:42:33.223Z,1.27
2023-03-05T14:45:35.954Z,1.45
2023-03-05T14:48:39.124Z,0.80
2023-03-05T14:51:43.005Z,1.00
2023-03-05T14:54:46.332Z,0.60
2023-03-05T14:57:49.585Z,0.98
2023-03-05T15:00:52.480Z,1.23
2023-03-05T15:03:55.506Z,1.25
2023-03-05T15:06:58.471Z,1.20
2023-03-05T15:10:01.454Z,0.60
2023-03-05T15:13:04.504Z,0.40
2023-03-05T15:16:07.997Z,0.88
2023-03-05T15:19:10.569Z,1.50
2023-03-05T15:22:13.540Z,1.20
2023-03-05T15:25:16.682Z,1.08
2023-03-05T15:28:19.148Z,1.10
2023-03-05T15:31:21.672Z,1.33
2023-03-05T15:34:25.058Z,1.77
2023-03-05T15:37:28.077Z,0.47
2023-03-05T15:40:30.579Z,2.45
2023-03-05T15:43:33.395Z,0.90
2023-03-05T15:46:36.262Z,1.13
2023-03-05T15:49:39.094Z,1.30
2023-03-05T15:52:42.346Z,1.38
2023-03-05T15:55:45.803Z,1.65
2023-03-05T15:58:49.680Z,0.90
2023-03-05T16:01:52.269Z,0.95
2023-03-05T16:04:54.800Z,1.35
2023-03-05T16:07:57.759Z,0.93
2023-03-05T16:11:00.927Z,0.95
2023-03-05T16:14:04.429Z,1.33
2023-03-05T16:17:06.912Z,0.95
2023-03-05T16:20:09.764Z,1.95
2023-03-05T16:23:13.204Z,0.65
2023-03-05T16:26:15.833Z,1.20
2023-03-05T16:29:18.348Z,1.50
2023-03-05T16:32:21.234Z,0.90
2023-03-05T16:35:24.226Z,0.40
2023-03-05T16:38:27.363Z,0.90
2023-03-05T16:41:30.346Z,1.13
2023-03-05T16:44:32.571Z,1.33
2023-03-05T16:47:35.575Z,0.57
2023-03-05T16:50:39.019Z,1.15
2023-03-05T16:53:42.544Z,1.60
2023-03-05T16:56:45.856Z,0.90
2023-03-05T16:59:48.707Z,1.20
2023-03-05T17:02:51.160Z,1.63
2023-03-05T17:05:53.457Z,1.05
2023-03-05T17:08:56.195Z,0.75
2023-03-05T17:11:59.656Z,0.65
2023-03-05T17:15:02.346Z,1.00
2023-03-05T17:18:05.276Z,0.93
2023-03-05T17:21:07.525Z,1.10
2023-03-05T17:24:10.003Z,1.15
2023-03-05T17:27:12.874Z,2.35
2023-03-05T17:30:15.332Z,1.42
2023-03-05T17:33:19.003Z,1.25
2023-03-05T17:36:22.239Z,1.33
2023-03-05T17:39:26.130Z,1.00
2023-03-05T17:42:28.638Z,1.02
2023-03-05T17:45:30.978Z,0.93
2023-03-05T17:48:33.557Z,0.80
2023-03-05T17:51:36.460Z,0.90
2023-03-05T17:54:39.085Z,0.75
2023-03-05T17:57:41.451Z,0.73
2023-03-05T18:00:44.785Z,1.33
2023-03-05T18:03:48.124Z,1.20
2023-03-05T18:06:51.529Z,1.27
2023-03-05T18:09:55.013Z,1.20
2023-03-05T18:12:58.232Z,0.55
2023-03-05T18:16:02.052Z,1.00
2023-03-05T18:19:04.493Z,1.77
2023-03-05T18:22:07.705Z,1.10
2023-03-05T18:25:10.740Z,1.20
2023-03-05T18:28:13.394Z,1.95
2023-03-05T18:31:16.504Z,1.23
2023-03-05T18:34:19.894Z,1.27
2023-03-05T18:37:23.216Z,1.30
2023-03-05T18:40:26.016Z,1.15
2023-03-05T18:43:28.722Z,1.55
2023-03-05T18:46:31.388Z,1.17
2023-03-05T18:49:33.608Z,1.27
2023-03-05T18:52:36.276Z,1.38
2023-03-05T18:55:39.074Z,1.25
2023-03-05T18:58:42.595Z,0.90
2023-03-05T19:01:45.696Z,1.27
2023-03-05T19:04:48.765Z,1.92
2023-03-05T19:07:51.286Z,1.77
2023-03-05T19:10:54.356Z,1.98
2023-03-05T19:13:56.918Z,2.10
2023-03-05T19:16:59.807Z,1.90
2023-03-05T19:20:02.006Z,1.30
2023-03-05T19:23:04.409Z,1.88
2023-03-05T19:26:07.390Z,2.80
2023-03-05T19:29:10.491Z,1.17
2023-03-05T19:32:13.454Z,1.10
2023-03-05T19:35:15.896Z,1.50
2023-03-05T19:38:19.338Z,2.30
2023-03-05T19:41:22.358Z,1.48
2023-03-05T19:44:25.445Z,1.70
2023-03-05T19:47:28.169Z,1.02
2023-03-05T19:50:32.843Z,1.38
2023-03-05T19:53:35.840Z,1.75
2023-03-05T19:56:38.593Z,1.45
2023-03-05T19:59:41.462Z,1.45
2023-03-05T20:02:44.802Z,1.73
2023-03-05T20:05:48.252Z,2.65
2023-03-05T20:08:51.318Z,2.47
2023-03-05T20:11:54.406Z,2.22
2023-03-05T20:14:56.885Z,2.70
2023-03-05T20:17:59.868Z,2.60
2023-03-05T20:21:03.228Z,2.75
2023-03-05T20:24:07.798Z,2.45
2023-03-05T20:27:11.908Z,2.28
2023-03-05T20:30:14.970Z,3.08
2023-03-05T20:33:17.879Z,2.90
2023-03-05T20:36:20.834Z,3.17
2023-03-05T20:39:24.413Z,2.30
2023-03-05T20:42:27.476Z,3.45
2023-03-05T20:45:30.854Z,2.22
2023-03-05T20:48:34.696Z,2.95
2023-03-05T20:51:37.607Z,2.60
2023-03-05T20:54:40.455Z,2.53
2023-03-05T20:57:44.041Z,3.20
2023-03-05T21:00:47.247Z,3.08
2023-03-05T21:03:49.789Z,2.70
2023-03-05T21:06:52.820Z,3.20
2023-03-05T21:09:56.127Z,2.85
2023-03-05T21:13:00.946Z,2.92
2023-03-05T21:16:03.864Z,2.92
2023-03-05T21:19:07.324Z,3.08
2023-03-05T21:22:10.929Z,2.75
2023-03-05T21:25:13.853Z,3.15
2023-03-05T21:28:16.499Z,2.47
2023-03-05T21:31:19.291Z,2.88
2023-03-05T21:34:21.684Z,2.88
2023-03-05T21:37:25.136Z,3.63
2023-03-05T21:40:28.723Z,3.50
2023-03-05T21:43:31.710Z,2.35
2023-03-05T21:46:34.425Z,3.65
2023-03-05T21:49:37.237Z,2.95
2023-03-05T21:52:40.249Z,2.78
2023-03-05T21:55:43.781Z,4.28
2023-03-05T21:58:46.121Z,2.47
2023-03-05T22:01:48.409Z,2.72
2023-03-05T22:04:51.157Z,2.10
2023-03-05T22:07:53.423Z,2.30
2023-03-05T22:10:56.512Z,2.30
2023-03-05T22:13:59.010Z,2.67
2023-03-05T22:17:02.175Z,1.90
2023-03-05T22:20:05.790Z,2.38
2023-03-05T22:23:08.762Z,2.92
2023-03-05T22:26:11.474Z,2.75
2023-03-05T22:29:15.285Z,2.28
2023-03-05T22:32:18.265Z,2.47
2023-03-05T22:35:21.588Z,2.90
2023-03-05T22:38:25.504Z,2.30
2023-03-05T22:41:29.017Z,2.33
2023-03-05T22:44:31.568Z,2.40
2023-03-05T22:47:34.024Z,2.85
2023-03-05T22:50:36.239Z,2.20
2023-03-05T22:53:38.950Z,2.80
2023-03-05T22:56:41.935Z,2.33
2023-03-05T22:59:44.818Z,2.35
2023-03-05T23:02:48.700Z,3.10
2023-03-05T23:05:52.305Z,2.97
2023-03-05T23:08:55.613Z,2.70
2023-03-05T23:11:59.123Z,1.88
2023-03-05T23:15:01.472Z,1.98
2023-03-05T23:18:04.116Z,2.35
2023-03-05T23:21:07.194Z,2.53
2023-03-05T23:24:10.146Z,2.35
2023-03-05T23:27:13.149Z,1.92
2023-03-05T23:30:16.027Z,2.60
2023-03-05T23:33:19.166Z,2.47
2023-03-05T23:36:22.653Z,2.38
2023-03-05T23:39:25.430Z,1.98
2023-03-05T23:42:28.635Z,3.35
2023-03-05T23:45:31.922Z,1.85
2023-03-05T23:48:34.350Z,2.25
2023-03-05T23:51:37.391Z,2.33
2023-03-05T23:54:41.031Z,2.85
2023-03-05T23:57:44.120Z,2.10
